Watarrka Kings Canyon, Australia
Current Conditions -  °F | °C
As of 1:00 AM on Saturday 25 Oct 2014 (Local Time) from YAYE Reporting Station
Clear Clear  
Wind Chill: 79°   Ceiling: Unl
Heat Index: 79°   Visibility: 6mi
Dew Point: 37°   Wind: 5mph
Humidity: 23%   Direction: 190°S
Pressure: 30"   Gusts: NA
Location:  24.28°S, 131.53°E
Report Text: YAYE 241600Z AUTO 19004KT 9999 // NCD 26/03 Q1016
Loading
Personal Weather Stations






























Interactive Weather Map
Tropical Storm Tracking
New forecast layout! Learn more

10-Day Weather Forecast

Advertisements
Track Severe Weather on mobile